sensor_id;sensor_type;location;lat;lon;timestamp;temperature;humidity
60353;DHT22;46196;52.970;6.954;2023-05-20T00:01:37;11.20;99.90
60353;DHT22;46196;52.970;6.954;2023-05-20T00:04:03;11.20;99.90
60353;DHT22;46196;52.970;6.954;2023-05-20T00:06:28;11.20;99.90
60353;DHT22;46196;52.970;6.954;2023-05-20T00:08:54;11.20;99.90
60353;DHT22;46196;52.970;6.954;2023-05-20T00:11:20;11.00;99.90
60353;DHT22;46196;52.970;6.954;2023-05-20T00:13:46;11.20;99.90
60353;DHT22;46196;52.970;6.954;2023-05-20T00:16:11;11.30;99.90
60353;DHT22;46196;52.970;6.954;2023-05-20T00:18:37;11.40;99.90
60353;DHT22;46196;52.970;6.954;2023-05-20T00:21:03;11.20;99.90
60353;DHT22;46196;52.970;6.954;2023-05-20T00:23:28;11.20;99.90
60353;DHT22;46196;52.970;6.954;2023-05-20T00:25:54;11.30;99.90
60353;DHT22;46196;52.970;6.954;2023-05-20T00:28:20;11.30;99.90
60353;DHT22;46196;52.970;6.954;2023-05-20T00:30:47;11.30;99.90
60353;DHT22;46196;52.970;6.954;2023-05-20T00:33:13;11.30;99.90
60353;DHT22;46196;52.970;6.954;2023-05-20T00:35:38;11.30;99.90
60353;DHT22;46196;52.970;6.954;2023-05-20T00:38:04;12.00;99.90
60353;DHT22;46196;52.970;6.954;2023-05-20T00:40:30;11.20;99.90
60353;DHT22;46196;52.970;6.954;2023-05-20T00:42:55;10.80;99.90
60353;DHT22;46196;52.970;6.954;2023-05-20T00:45:21;11.30;99.90
60353;DHT22;46196;52.970;6.954;2023-05-20T00:47:47;11.20;99.90
60353;DHT22;46196;52.970;6.954;2023-05-20T00:50:13;11.30;99.90
60353;DHT22;46196;52.970;6.954;2023-05-20T00:52:39;11.30;99.90
60353;DHT22;46196;52.970;6.954;2023-05-20T00:55:08;11.30;99.90
60353;DHT22;46196;52.970;6.954;2023-05-20T00:57:34;11.40;99.90
60353;DHT22;46196;52.970;6.954;2023-05-20T01:00:00;12.30;99.90
60353;DHT22;46196;52.970;6.954;2023-05-20T01:02:26;11.80;99.90
60353;DHT22;46196;52.970;6.954;2023-05-20T01:04:52;11.40;99.90
60353;DHT22;46196;52.970;6.954;2023-05-20T01:07:19;11.80;99.90
60353;DHT22;46196;52.970;6.954;2023-05-20T01:09:45;11.20;99.90
60353;DHT22;46196;52.970;6.954;2023-05-20T01:14:50;11.10;99.90
60353;DHT22;46196;52.970;6.954;2023-05-20T01:17:21;10.30;99.90
60353;DHT22;46196;52.970;6.954;2023-05-20T01:19:51;11.10;99.90
60353;DHT22;46196;52.970;6.954;2023-05-20T01:22:23;11.80;99.90
60353;DHT22;46196;52.970;6.954;2023-05-20T01:24:49;11.10;99.90
60353;DHT22;46196;52.970;6.954;2023-05-20T01:27:21;10.50;99.90
60353;DHT22;46196;52.970;6.954;2023-05-20T01:29:50;10.10;99.90
60353;DHT22;46196;52.970;6.954;2023-05-20T01:32:21;11.10;99.90
60353;DHT22;46196;52.970;6.954;2023-05-20T01:34:51;11.10;99.90
60353;DHT22;46196;52.970;6.954;2023-05-20T01:37:18;11.10;99.90
60353;DHT22;46196;52.970;6.954;2023-05-20T01:39:47;11.10;99.90
60353;DHT22;46196;52.970;6.954;2023-05-20T01:42:14;11.00;99.90
60353;DHT22;46196;52.970;6.954;2023-05-20T01:44:40;11.10;99.90
60353;DHT22;46196;52.970;6.954;2023-05-20T01:47:07;11.10;99.90
60353;DHT22;46196;52.970;6.954;2023-05-20T01:49:33;10.70;99.90
60353;DHT22;46196;52.970;6.954;2023-05-20T01:51:59;11.10;99.90
60353;DHT22;46196;52.970;6.954;2023-05-20T01:54:25;11.00;99.90
60353;DHT22;46196;52.970;6.954;2023-05-20T01:56:51;11.10;99.90
60353;DHT22;46196;52.970;6.954;2023-05-20T01:59:16;11.20;99.90
60353;DHT22;46196;52.970;6.954;2023-05-20T02:01:42;11.20;99.90
60353;DHT22;46196;52.970;6.954;2023-05-20T02:04:08;11.20;99.90
60353;DHT22;46196;52.970;6.954;2023-05-20T02:06:34;11.20;99.90
60353;DHT22;46196;52.970;6.954;2023-05-20T02:08:59;11.20;99.90
60353;DHT22;46196;52.970;6.954;2023-05-20T02:11:25;12.40;99.90
60353;DHT22;46196;52.970;6.954;2023-05-20T02:13:51;11.20;99.90
60353;DHT22;46196;52.970;6.954;2023-05-20T02:16:17;11.30;99.90
60353;DHT22;46196;52.970;6.954;2023-05-20T02:18:42;10.20;99.90
60353;DHT22;46196;52.970;6.954;2023-05-20T02:21:08;11.20;99.90
60353;DHT22;46196;52.970;6.954;2023-05-20T02:23:34;11.80;99.90
60353;DHT22;46196;52.970;6.954;2023-05-20T02:26:01;11.70;99.90
60353;DHT22;46196;52.970;6.954;2023-05-20T02:28:27;13.10;99.90
60353;DHT22;46196;52.970;6.954;2023-05-20T02:30:52;11.30;99.90
60353;DHT22;46196;52.970;6.954;2023-05-20T02:33:18;11.90;99.90
60353;DHT22;46196;52.970;6.954;2023-05-20T02:35:44;11.30;99.90
60353;DHT22;46196;52.970;6.954;2023-05-20T02:38:11;10.30;99.90
60353;DHT22;46196;52.970;6.954;2023-05-20T02:40:37;11.30;99.90
60353;DHT22;46196;52.970;6.954;2023-05-20T02:43:03;11.20;99.90
60353;DHT22;46196;52.970;6.954;2023-05-20T02:45:29;11.70;99.90
60353;DHT22;46196;52.970;6.954;2023-05-20T02:47:55;11.20;99.90
60353;DHT22;46196;52.970;6.954;2023-05-20T02:50:20;11.20;99.90
60353;DHT22;46196;52.970;6.954;2023-05-20T02:52:46;10.90;99.90
60353;DHT22;46196;52.970;6.954;2023-05-20T02:55:12;11.50;99.90
60353;DHT22;46196;52.970;6.954;2023-05-20T02:57:38;11.10;99.90
60353;DHT22;46196;52.970;6.954;2023-05-20T03:00:04;11.20;99.90
60353;DHT22;46196;52.970;6.954;2023-05-20T03:02:31;11.20;99.90
60353;DHT22;46196;52.970;6.954;2023-05-20T03:04:57;11.20;99.90
60353;DHT22;46196;52.970;6.954;2023-05-20T03:07:23;11.20;99.90
60353;DHT22;46196;52.970;6.954;2023-05-20T03:09:49;12.30;99.90
60353;DHT22;46196;52.970;6.954;2023-05-20T03:12:15;11.60;99.90
60353;DHT22;46196;52.970;6.954;2023-05-20T03:14:41;11.20;99.90
60353;DHT22;46196;52.970;6.954;2023-05-20T03:17:08;11.20;99.90
60353;DHT22;46196;52.970;6.954;2023-05-20T03:19:34;11.80;99.90
60353;DHT22;46196;52.970;6.954;2023-05-20T03:22:00;12.60;99.90
60353;DHT22;46196;52.970;6.954;2023-05-20T03:24:27;11.20;99.90
60353;DHT22;46196;52.970;6.954;2023-05-20T03:26:52;11.20;99.90
60353;DHT22;46196;52.970;6.954;2023-05-20T03:29:18;11.60;99.90
60353;DHT22;46196;52.970;6.954;2023-05-20T03:31:44;11.20;99.90
60353;DHT22;46196;52.970;6.954;2023-05-20T03:34:10;12.80;99.90
60353;DHT22;46196;52.970;6.954;2023-05-20T03:36:35;11.20;99.90
60353;DHT22;46196;52.970;6.954;2023-05-20T03:39:01;11.10;99.90
60353;DHT22;46196;52.970;6.954;2023-05-20T03:41:28;11.20;99.90
60353;DHT22;46196;52.970;6.954;2023-05-20T03:43:54;11.30;99.90
60353;DHT22;46196;52.970;6.954;2023-05-20T03:46:20;11.20;99.90
60353;DHT22;46196;52.970;6.954;2023-05-20T03:48:45;11.20;99.90
60353;DHT22;46196;52.970;6.954;2023-05-20T03:51:11;11.70;99.90
60353;DHT22;46196;52.970;6.954;2023-05-20T03:53:37;11.20;99.90
60353;DHT22;46196;52.970;6.954;2023-05-20T03:56:03;11.20;99.90
60353;DHT22;46196;52.970;6.954;2023-05-20T03:58:28;10.70;99.90
60353;DHT22;46196;52.970;6.954;2023-05-20T04:00:55;11.20;99.90
60353;DHT22;46196;52.970;6.954;2023-05-20T04:03:21;11.30;99.90
60353;DHT22;46196;52.970;6.954;2023-05-20T04:05:48;11.30;99.90
60353;DHT22;46196;52.970;6.954;2023-05-20T04:08:13;11.30;99.90
60353;DHT22;46196;52.970;6.954;2023-05-20T04:10:42;11.30;99.90
60353;DHT22;46196;52.970;6.954;2023-05-20T04:13:09;11.30;99.90
60353;DHT22;46196;52.970;6.954;2023-05-20T04:15:35;11.30;99.90
60353;DHT22;46196;52.970;6.954;2023-05-20T04:18:01;12.20;99.90
60353;DHT22;46196;52.970;6.954;2023-05-20T04:20:27;11.20;99.90
60353;DHT22;46196;52.970;6.954;2023-05-20T04:22:53;11.30;99.90
60353;DHT22;46196;52.970;6.954;2023-05-20T04:27:46;11.20;99.90
60353;DHT22;46196;52.970;6.954;2023-05-20T04:30:12;10.40;99.90
60353;DHT22;46196;52.970;6.954;2023-05-20T04:32:38;11.20;99.90
60353;DHT22;46196;52.970;6.954;2023-05-20T04:35:07;11.20;99.90
60353;DHT22;46196;52.970;6.954;2023-05-20T04:37:36;11.20;99.90
60353;DHT22;46196;52.970;6.954;2023-05-20T04:40:03;11.20;99.90
60353;DHT22;46196;52.970;6.954;2023-05-20T04:42:29;11.10;99.90
60353;DHT22;46196;52.970;6.954;2023-05-20T04:44:54;11.10;99.90
60353;DHT22;46196;52.970;6.954;2023-05-20T04:47:20;11.10;99.90
60353;DHT22;46196;52.970;6.954;2023-05-20T04:49:46;11.10;99.90
60353;DHT22;46196;52.970;6.954;2023-05-20T04:52:12;12.00;99.90
60353;DHT22;46196;52.970;6.954;2023-05-20T04:54:37;12.00;99.90
60353;DHT22;46196;52.970;6.954;2023-05-20T04:57:04;11.20;99.90
60353;DHT22;46196;52.970;6.954;2023-05-20T04:59:30;11.20;99.90
60353;DHT22;46196;52.970;6.954;2023-05-20T05:01:56;11.30;99.90
60353;DHT22;46196;52.970;6.954;2023-05-20T05:04:22;12.20;99.90
60353;DHT22;46196;52.970;6.954;2023-05-20T05:06:48;11.30;99.90
60353;DHT22;46196;52.970;6.954;2023-05-20T05:09:14;11.30;99.90
60353;DHT22;46196;52.970;6.954;2023-05-20T05:11:40;12.30;99.90
60353;DHT22;46196;52.970;6.954;2023-05-20T05:14:05;11.40;99.90
60353;DHT22;46196;52.970;6.954;2023-05-20T05:16:31;11.40;99.90
60353;DHT22;46196;52.970;6.954;2023-05-20T05:18:57;11.40;99.90
60353;DHT22;46196;52.970;6.954;2023-05-20T05:21:22;11.40;99.90
60353;DHT22;46196;52.970;6.954;2023-05-20T05:23:48;11.40;99.90
60353;DHT22;46196;52.970;6.954;2023-05-20T05:26:13;13.10;99.90
60353;DHT22;46196;52.970;6.954;2023-05-20T05:28:41;11.50;99.90
60353;DHT22;46196;52.970;6.954;2023-05-20T05:31:07;11.50;99.90
60353;DHT22;46196;52.970;6.954;2023-05-20T05:33:33;11.50;99.90
60353;DHT22;46196;52.970;6.954;2023-05-20T05:35:59;11.50;99.90
60353;DHT22;46196;52.970;6.954;2023-05-20T05:38:26;11.60;99.90
60353;DHT22;46196;52.970;6.954;2023-05-20T05:40:52;11.30;99.90
60353;DHT22;46196;52.970;6.954;2023-05-20T05:43:17;11.60;99.90
60353;DHT22;46196;52.970;6.954;2023-05-20T05:45:43;11.70;99.90
60353;DHT22;46196;52.970;6.954;2023-05-20T05:48:09;12.10;99.90
60353;DHT22;46196;52.970;6.954;2023-05-20T05:50:34;11.70;99.90
60353;DHT22;46196;52.970;6.954;2023-05-20T05:53:00;11.90;99.90
60353;DHT22;46196;52.970;6.954;2023-05-20T05:55:26;11.80;99.90
60353;DHT22;46196;52.970;6.954;2023-05-20T05:57:52;11.80;99.90
60353;DHT22;46196;52.970;6.954;2023-05-20T06:00:17;11.80;99.90
60353;DHT22;46196;52.970;6.954;2023-05-20T06:02:43;11.90;99.90
60353;DHT22;46196;52.970;6.954;2023-05-20T06:05:09;11.90;99.90
60353;DHT22;46196;52.970;6.954;2023-05-20T06:07:35;11.90;99.90
60353;DHT22;46196;52.970;6.954;2023-05-20T06:10:01;12.00;99.90
60353;DHT22;46196;52.970;6.954;2023-05-20T06:12:27;12.10;99.90
60353;DHT22;46196;52.970;6.954;2023-05-20T06:14:52;11.70;99.90
60353;DHT22;46196;52.970;6.954;2023-05-20T06:17:18;12.10;99.90
60353;DHT22;46196;52.970;6.954;2023-05-20T06:19:43;12.20;99.90
60353;DHT22;46196;52.970;6.954;2023-05-20T06:22:09;12.20;99.90
60353;DHT22;46196;52.970;6.954;2023-05-20T06:24:35;12.30;99.90
60353;DHT22;46196;52.970;6.954;2023-05-20T06:27:01;12.40;99.90
60353;DHT22;46196;52.970;6.954;2023-05-20T06:29:28;11.90;99.90
60353;DHT22;46196;52.970;6.954;2023-05-20T06:31:53;12.50;99.90
60353;DHT22;46196;52.970;6.954;2023-05-20T06:34:19;12.60;99.90
60353;DHT22;46196;52.970;6.954;2023-05-20T06:36:45;12.60;99.90
60353;DHT22;46196;52.970;6.954;2023-05-20T06:39:10;12.70;99.90
60353;DHT22;46196;52.970;6.954;2023-05-20T06:41:40;12.80;99.90
60353;DHT22;46196;52.970;6.954;2023-05-20T06:44:06;12.80;99.90
60353;DHT22;46196;52.970;6.954;2023-05-20T06:46:33;12.90;99.90
60353;DHT22;46196;52.970;6.954;2023-05-20T06:48:59;12.90;99.90
60353;DHT22;46196;52.970;6.954;2023-05-20T06:51:26;13.00;99.90
60353;DHT22;46196;52.970;6.954;2023-05-20T06:53:53;13.10;99.90
60353;DHT22;46196;52.970;6.954;2023-05-20T06:56:19;13.20;99.90
60353;DHT22;46196;52.970;6.954;2023-05-20T06:58:46;13.30;99.90
60353;DHT22;46196;52.970;6.954;2023-05-20T07:01:11;13.40;99.90
60353;DHT22;46196;52.970;6.954;2023-05-20T07:03:37;13.50;99.90
60353;DHT22;46196;52.970;6.954;2023-05-20T07:06:03;13.60;99.90
60353;DHT22;46196;52.970;6.954;2023-05-20T07:08:29;13.60;99.90
60353;DHT22;46196;52.970;6.954;2023-05-20T07:10:55;13.80;99.90
60353;DHT22;46196;52.970;6.954;2023-05-20T07:13:21;13.80;99.90
60353;DHT22;46196;52.970;6.954;2023-05-20T07:15:50;13.90;99.90
60353;DHT22;46196;52.970;6.954;2023-05-20T07:18:16;14.00;99.90
60353;DHT22;46196;52.970;6.954;2023-05-20T07:20:43;14.10;99.90
60353;DHT22;46196;52.970;6.954;2023-05-20T07:23:09;14.30;99.90
60353;DHT22;46196;52.970;6.954;2023-05-20T07:25:34;14.50;99.90
60353;DHT22;46196;52.970;6.954;2023-05-20T07:28:00;15.10;99.90
60353;DHT22;46196;52.970;6.954;2023-05-20T07:30:26;16.00;99.90
60353;DHT22;46196;52.970;6.954;2023-05-20T07:32:52;16.80;99.90
60353;DHT22;46196;52.970;6.954;2023-05-20T07:35:18;17.60;99.90
60353;DHT22;46196;52.970;6.954;2023-05-20T07:37:44;18.30;99.90
60353;DHT22;46196;52.970;6.954;2023-05-20T07:40:09;18.90;99.90
60353;DHT22;46196;52.970;6.954;2023-05-20T07:42:35;19.40;99.90
60353;DHT22;46196;52.970;6.954;2023-05-20T07:45:01;19.80;99.90
60353;DHT22;46196;52.970;6.954;2023-05-20T07:47:27;20.30;98.90
60353;DHT22;46196;52.970;6.954;2023-05-20T07:49:53;20.60;98.80
60353;DHT22;46196;52.970;6.954;2023-05-20T07:52:19;21.10;98.30
60353;DHT22;46196;52.970;6.954;2023-05-20T07:54:45;21.50;97.60
60353;DHT22;46196;52.970;6.954;2023-05-20T07:57:10;21.90;95.20
60353;DHT22;46196;52.970;6.954;2023-05-20T07:59:36;22.20;94.70
60353;DHT22;46196;52.970;6.954;2023-05-20T08:04:28;22.50;94.40
60353;DHT22;46196;52.970;6.954;2023-05-20T08:06:54;23.10;88.40
60353;DHT22;46196;52.970;6.954;2023-05-20T08:09:19;23.30;90.10
60353;DHT22;46196;52.970;6.954;2023-05-20T08:11:46;23.40;87.60
60353;DHT22;46196;52.970;6.954;2023-05-20T08:14:11;23.40;84.80
60353;DHT22;46196;52.970;6.954;2023-05-20T08:16:37;23.40;86.00
60353;DHT22;46196;52.970;6.954;2023-05-20T08:19:03;23.60;84.40
60353;DHT22;46196;52.970;6.954;2023-05-20T08:21:28;23.60;81.60
60353;DHT22;46196;52.970;6.954;2023-05-20T08:23:54;23.50;80.40
60353;DHT22;46196;52.970;6.954;2023-05-20T08:26:20;23.40;79.60
60353;DHT22;46196;52.970;6.954;2023-05-20T08:28:46;23.40;76.70
60353;DHT22;46196;52.970;6.954;2023-05-20T08:31:13;23.30;78.10
60353;DHT22;46196;52.970;6.954;2023-05-20T08:33:39;23.30;77.70
60353;DHT22;46196;52.970;6.954;2023-05-20T08:36:06;23.50;78.40
60353;DHT22;46196;52.970;6.954;2023-05-20T08:38:32;23.60;76.00
60353;DHT22;46196;52.970;6.954;2023-05-20T08:40:58;23.70;76.80
60353;DHT22;46196;52.970;6.954;2023-05-20T08:43:25;23.80;77.40
60353;DHT22;46196;52.970;6.954;2023-05-20T08:45:51;23.70;76.40
60353;DHT22;46196;52.970;6.954;2023-05-20T08:48:17;23.90;75.70
60353;DHT22;46196;52.970;6.954;2023-05-20T08:50:47;24.00;75.40
60353;DHT22;46196;52.970;6.954;2023-05-20T08:53:14;24.00;73.90
60353;DHT22;46196;52.970;6.954;2023-05-20T08:55:47;24.20;73.60
60353;DHT22;46196;52.970;6.954;2023-05-20T08:58:17;24.30;71.50
60353;DHT22;46196;52.970;6.954;2023-05-20T09:00:44;24.30;71.50
60353;DHT22;46196;52.970;6.954;2023-05-20T09:03:10;24.20;70.80
60353;DHT22;46196;52.970;6.954;2023-05-20T09:05:35;23.70;70.60
60353;DHT22;46196;52.970;6.954;2023-05-20T09:08:08;24.10;70.90
60353;DHT22;46196;52.970;6.954;2023-05-20T09:10:35;24.20;70.00
60353;DHT22;46196;52.970;6.954;2023-05-20T09:13:02;24.30;70.60
60353;DHT22;46196;52.970;6.954;2023-05-20T09:15:29;24.30;67.30
60353;DHT22;46196;52.970;6.954;2023-05-20T09:17:55;24.30;69.00
60353;DHT22;46196;52.970;6.954;2023-05-20T09:20:23;24.40;68.90
60353;DHT22;46196;52.970;6.954;2023-05-20T09:22:51;24.50;66.30
60353;DHT22;46196;52.970;6.954;2023-05-20T09:25:21;24.60;67.30
60353;DHT22;46196;52.970;6.954;2023-05-20T09:27:48;24.40;63.90
60353;DHT22;46196;52.970;6.954;2023-05-20T09:30:17;24.30;66.30
60353;DHT22;46196;52.970;6.954;2023-05-20T09:32:42;24.30;65.80
60353;DHT22;46196;52.970;6.954;2023-05-20T09:35:12;24.10;64.20
60353;DHT22;46196;52.970;6.954;2023-05-20T09:37:38;24.00;65.20
60353;DHT22;46196;52.970;6.954;2023-05-20T09:40:07;24.00;66.70
60353;DHT22;46196;52.970;6.954;2023-05-20T09:42:46;24.00;65.70
60353;DHT22;46196;52.970;6.954;2023-05-20T09:45:14;24.00;65.80
60353;DHT22;46196;52.970;6.954;2023-05-20T09:47:40;24.10;65.90
60353;DHT22;46196;52.970;6.954;2023-05-20T09:50:09;24.20;65.40
60353;DHT22;46196;52.970;6.954;2023-05-20T09:52:36;24.30;62.80
60353;DHT22;46196;52.970;6.954;2023-05-20T09:55:04;24.20;62.10
60353;DHT22;46196;52.970;6.954;2023-05-20T09:57:34;24.10;60.70
60353;DHT22;46196;52.970;6.954;2023-05-20T10:00:04;23.90;63.60
60353;DHT22;46196;52.970;6.954;2023-05-20T10:02:32;23.70;62.80
60353;DHT22;46196;52.970;6.954;2023-05-20T10:05:00;23.60;62.50
60353;DHT22;46196;52.970;6.954;2023-05-20T10:15:50;23.20;63.80
60353;DHT22;46196;52.970;6.954;2023-05-20T10:18:45;23.00;63.50
60353;DHT22;46196;52.970;6.954;2023-05-20T10:21:15;22.80;66.70
60353;DHT22;46196;52.970;6.954;2023-05-20T10:23:41;22.80;61.90
60353;DHT22;46196;52.970;6.954;2023-05-20T10:26:07;22.60;63.30
60353;DHT22;46196;52.970;6.954;2023-05-20T10:28:34;22.50;64.60
60353;DHT22;46196;52.970;6.954;2023-05-20T10:31:01;22.70;67.10
60353;DHT22;46196;52.970;6.954;2023-05-20T10:33:28;22.90;66.10
60353;DHT22;46196;52.970;6.954;2023-05-20T10:35:57;23.00;66.10
60353;DHT22;46196;52.970;6.954;2023-05-20T10:38:23;23.10;63.70
60353;DHT22;46196;52.970;6.954;2023-05-20T10:40:49;22.90;63.10
60353;DHT22;46196;52.970;6.954;2023-05-20T10:43:35;22.70;62.40
60353;DHT22;46196;52.970;6.954;2023-05-20T10:46:01;22.60;62.60
60353;DHT22;46196;52.970;6.954;2023-05-20T10:48:31;22.30;62.40
60353;DHT22;46196;52.970;6.954;2023-05-20T10:51:01;22.10;62.50
60353;DHT22;46196;52.970;6.954;2023-05-20T10:53:41;22.10;63.00
60353;DHT22;46196;52.970;6.954;2023-05-20T10:56:17;22.30;65.00
60353;DHT22;46196;52.970;6.954;2023-05-20T10:58:43;23.00;62.00
60353;DHT22;46196;52.970;6.954;2023-05-20T11:01:09;22.60;61.60
60353;DHT22;46196;52.970;6.954;2023-05-20T11:03:36;22.60;62.00
60353;DHT22;46196;52.970;6.954;2023-05-20T11:06:10;22.60;63.00
60353;DHT22;46196;52.970;6.954;2023-05-20T11:08:36;22.70;62.50
60353;DHT22;46196;52.970;6.954;2023-05-20T11:11:02;22.90;63.30
60353;DHT22;46196;52.970;6.954;2023-05-20T11:13:27;22.60;60.50
60353;DHT22;46196;52.970;6.954;2023-05-20T11:15:53;23.40;62.10
60353;DHT22;46196;52.970;6.954;2023-05-20T11:18:19;23.60;62.00
60353;DHT22;46196;52.970;6.954;2023-05-20T11:20:45;23.80;61.40
60353;DHT22;46196;52.970;6.954;2023-05-20T11:23:13;23.80;60.00
60353;DHT22;46196;52.970;6.954;2023-05-20T11:25:39;23.80;60.10
60353;DHT22;46196;52.970;6.954;2023-05-20T11:28:11;23.80;59.10
60353;DHT22;46196;52.970;6.954;2023-05-20T11:30:37;23.80;60.30
60353;DHT22;46196;52.970;6.954;2023-05-20T11:33:03;23.80;59.40
60353;DHT22;46196;52.970;6.954;2023-05-20T11:35:30;23.70;60.90
60353;DHT22;46196;52.970;6.954;2023-05-20T11:38:02;23.70;59.80
60353;DHT22;46196;52.970;6.954;2023-05-20T11:40:28;23.70;58.20
60353;DHT22;46196;52.970;6.954;2023-05-20T11:42:55;23.40;58.70
60353;DHT22;46196;52.970;6.954;2023-05-20T11:45:21;23.10;58.60
60353;DHT22;46196;52.970;6.954;2023-05-20T11:48:01;22.70;59.50
60353;DHT22;46196;52.970;6.954;2023-05-20T11:50:27;22.60;60.30
60353;DHT22;46196;52.970;6.954;2023-05-20T11:52:59;22.50;61.80
60353;DHT22;46196;52.970;6.954;2023-05-20T11:55:26;22.50;61.40
60353;DHT22;46196;52.970;6.954;2023-05-20T11:57:53;22.50;62.50
60353;DHT22;46196;52.970;6.954;2023-05-20T12:00:19;22.70;62.80
60353;DHT22;46196;52.970;6.954;2023-05-20T12:02:46;22.90;61.80
60353;DHT22;46196;52.970;6.954;2023-05-20T12:05:11;23.00;60.80
60353;DHT22;46196;52.970;6.954;2023-05-20T12:07:38;22.90;60.70
60353;DHT22;46196;52.970;6.954;2023-05-20T12:10:04;22.90;61.10
60353;DHT22;46196;52.970;6.954;2023-05-20T12:12:31;23.00;61.50
60353;DHT22;46196;52.970;6.954;2023-05-20T12:14:56;23.20;60.30
60353;DHT22;46196;52.970;6.954;2023-05-20T12:17:22;23.40;60.50
60353;DHT22;46196;52.970;6.954;2023-05-20T12:19:48;23.50;59.40
60353;DHT22;46196;52.970;6.954;2023-05-20T12:22:14;23.40;58.80
60353;DHT22;46196;52.970;6.954;2023-05-20T12:24:39;23.40;59.20
60353;DHT22;46196;52.970;6.954;2023-05-20T12:27:05;23.20;59.00
60353;DHT22;46196;52.970;6.954;2023-05-20T12:29:32;23.20;59.70
60353;DHT22;46196;52.970;6.954;2023-05-20T12:31:58;23.40;60.00
60353;DHT22;46196;52.970;6.954;2023-05-20T12:34:24;23.60;59.00
60353;DHT22;46196;52.970;6.954;2023-05-20T12:36:50;23.80;57.90
60353;DHT22;46196;52.970;6.954;2023-05-20T12:39:16;23.80;58.00
60353;DHT22;46196;52.970;6.954;2023-05-20T12:41:43;24.00;58.80
60353;DHT22;46196;52.970;6.954;2023-05-20T12:44:09;24.00;57.10
60353;DHT22;46196;52.970;6.954;2023-05-20T12:46:35;23.90;57.40
60353;DHT22;46196;52.970;6.954;2023-05-20T12:49:01;23.70;58.00
60353;DHT22;46196;52.970;6.954;2023-05-20T12:51:26;23.60;57.30
60353;DHT22;46196;52.970;6.954;2023-05-20T12:53:52;23.40;58.30
60353;DHT22;46196;52.970;6.954;2023-05-20T12:56:18;23.30;58.00
60353;DHT22;46196;52.970;6.954;2023-05-20T12:58:44;23.20;57.60
60353;DHT22;46196;52.970;6.954;2023-05-20T13:01:10;23.00;58.00
60353;DHT22;46196;52.970;6.954;2023-05-20T13:03:35;22.80;58.60
60353;DHT22;46196;52.970;6.954;2023-05-20T13:06:02;22.70;58.90
60353;DHT22;46196;52.970;6.954;2023-05-20T13:08:28;22.70;59.40
60353;DHT22;46196;52.970;6.954;2023-05-20T13:10:54;22.80;60.20
60353;DHT22;46196;52.970;6.954;2023-05-20T13:13:20;22.90;59.30
60353;DHT22;46196;52.970;6.954;2023-05-20T13:15:49;22.80;58.20
60353;DHT22;46196;52.970;6.954;2023-05-20T13:18:15;22.70;58.90
60353;DHT22;46196;52.970;6.954;2023-05-20T13:20:44;22.60;59.00
60353;DHT22;46196;52.970;6.954;2023-05-20T13:23:10;22.60;59.70
60353;DHT22;46196;52.970;6.954;2023-05-20T13:25:36;22.70;60.70
60353;DHT22;46196;52.970;6.954;2023-05-20T13:28:03;22.70;60.30
60353;DHT22;46196;52.970;6.954;2023-05-20T13:30:29;22.70;59.50
60353;DHT22;46196;52.970;6.954;2023-05-20T13:32:55;22.70;60.30
60353;DHT22;46196;52.970;6.954;2023-05-20T13:35:21;22.70;59.70
60353;DHT22;46196;52.970;6.954;2023-05-20T13:37:47;22.90;59.60
60353;DHT22;46196;52.970;6.954;2023-05-20T13:40:13;22.90;59.30
60353;DHT22;46196;52.970;6.954;2023-05-20T13:42:38;23.00;60.20
60353;DHT22;46196;52.970;6.954;2023-05-20T13:45:04;23.10;59.50
60353;DHT22;46196;52.970;6.954;2023-05-20T13:47:30;23.10;59.50
60353;DHT22;46196;52.970;6.954;2023-05-20T13:49:56;23.20;60.00
60353;DHT22;46196;52.970;6.954;2023-05-20T13:52:22;23.20;59.60
60353;DHT22;46196;52.970;6.954;2023-05-20T13:54:48;23.10;59.90
60353;DHT22;46196;52.970;6.954;2023-05-20T13:57:14;23.20;61.00
60353;DHT22;46196;52.970;6.954;2023-05-20T13:59:40;23.40;60.70
60353;DHT22;46196;52.970;6.954;2023-05-20T14:02:06;23.50;60.10
60353;DHT22;46196;52.970;6.954;2023-05-20T14:04:32;23.50;59.30
60353;DHT22;46196;52.970;6.954;2023-05-20T14:07:06;23.40;58.60
60353;DHT22;46196;52.970;6.954;2023-05-20T14:09:32;22.80;59.00
60353;DHT22;46196;52.970;6.954;2023-05-20T14:11:57;23.00;60.10
60353;DHT22;46196;52.970;6.954;2023-05-20T14:14:23;22.90;59.80
60353;DHT22;46196;52.970;6.954;2023-05-20T14:16:49;22.80;59.70
60353;DHT22;46196;52.970;6.954;2023-05-20T14:19:15;22.70;59.10
60353;DHT22;46196;52.970;6.954;2023-05-20T14:21:40;22.60;59.90
60353;DHT22;46196;52.970;6.954;2023-05-20T14:24:06;22.50;61.10
60353;DHT22;46196;52.970;6.954;2023-05-20T14:26:32;22.40;61.30
60353;DHT22;46196;52.970;6.954;2023-05-20T14:28:59;22.30;61.00
60353;DHT22;46196;52.970;6.954;2023-05-20T14:31:25;22.10;62.10
60353;DHT22;46196;52.970;6.954;2023-05-20T14:33:51;21.90;62.40
60353;DHT22;46196;52.970;6.954;2023-05-20T14:36:17;21.80;61.90
60353;DHT22;46196;52.970;6.954;2023-05-20T14:38:43;21.70;62.60
60353;DHT22;46196;52.970;6.954;2023-05-20T14:41:08;21.60;62.80
60353;DHT22;46196;52.970;6.954;2023-05-20T14:43:34;21.40;63.50
60353;DHT22;46196;52.970;6.954;2023-05-20T14:46:02;21.40;64.10
60353;DHT22;46196;52.970;6.954;2023-05-20T14:48:28;21.30;63.70
60353;DHT22;46196;52.970;6.954;2023-05-20T14:50:54;21.20;64.20
60353;DHT22;46196;52.970;6.954;2023-05-20T14:53:20;21.00;64.30
60353;DHT22;46196;52.970;6.954;2023-05-20T14:55:45;20.90;65.00
60353;DHT22;46196;52.970;6.954;2023-05-20T14:58:11;20.80;65.40
60353;DHT22;46196;52.970;6.954;2023-05-20T15:00:37;20.80;65.80
60353;DHT22;46196;52.970;6.954;2023-05-20T15:03:03;20.70;66.20
60353;DHT22;46196;52.970;6.954;2023-05-20T15:05:29;20.80;67.00
60353;DHT22;46196;52.970;6.954;2023-05-20T15:07:55;20.80;67.60
60353;DHT22;46196;52.970;6.954;2023-05-20T15:10:21;20.80;67.80
60353;DHT22;46196;52.970;6.954;2023-05-20T15:12:47;20.80;68.00
60353;DHT22;46196;52.970;6.954;2023-05-20T15:15:13;20.80;68.90
60353;DHT22;46196;52.970;6.954;2023-05-20T15:17:38;20.70;69.30
60353;DHT22;46196;52.970;6.954;2023-05-20T15:20:04;20.70;69.40
60353;DHT22;46196;52.970;6.954;2023-05-20T15:22:30;20.70;69.60
60353;DHT22;46196;52.970;6.954;2023-05-20T15:24:56;20.70;69.80
60353;DHT22;46196;52.970;6.954;2023-05-20T15:27:22;20.70;71.30
60353;DHT22;46196;52.970;6.954;2023-05-20T15:29:47;21.90;73.40
60353;DHT22;46196;52.970;6.954;2023-05-20T15:32:13;20.90;71.80
60353;DHT22;46196;52.970;6.954;2023-05-20T15:34:39;20.90;71.70
60353;DHT22;46196;52.970;6.954;2023-05-20T15:37:05;20.90;72.00
60353;DHT22;46196;52.970;6.954;2023-05-20T15:39:30;20.90;71.70
60353;DHT22;46196;52.970;6.954;2023-05-20T15:41:56;20.90;71.40